createdAt,value
2023-05-20T00:00:53.235Z,12.07
2023-05-20T00:03:43.556Z,14.90
2023-05-20T00:06:32.429Z,13.30
2023-05-20T00:09:21.233Z,10.40
2023-05-20T00:12:10.251Z,9.35
2023-05-20T00:14:59.193Z,10.55
2023-05-20T00:17:48.009Z,9.30
2023-05-20T00:20:38.217Z,9.20
2023-05-20T00:23:26.999Z,8.80
2023-05-20T00:26:15.788Z,10.68
2023-05-20T00:29:04.533Z,8.23
2023-05-20T00:31:53.295Z,8.23
2023-05-20T00:34:42.180Z,8.13
2023-05-20T00:37:32.400Z,9.00
2023-05-20T00:40:21.956Z,7.57
2023-05-20T00:43:11.437Z,6.65
2023-05-20T00:46:00.350Z,7.90
2023-05-20T00:48:49.272Z,8.45
2023-05-20T00:51:38.180Z,8.43
2023-05-20T00:54:28.574Z,6.40
2023-05-20T00:57:18.510Z,10.82
2023-05-20T01:00:10.492Z,8.30
2023-05-20T01:02:59.560Z,6.38
2023-05-20T01:05:48.569Z,7.55
2023-05-20T01:08:37.284Z,7.00
2023-05-20T01:11:29.240Z,7.50
2023-05-20T01:14:19.752Z,7.93
2023-05-20T01:17:12.670Z,6.70
2023-05-20T01:20:02.218Z,7.78
2023-05-20T01:22:55.069Z,9.00
2023-05-20T01:25:43.842Z,6.10
2023-05-20T01:28:32.564Z,9.13
2023-05-20T01:31:25.597Z,8.57
2023-05-20T01:34:14.565Z,7.22
2023-05-20T01:37:03.811Z,9.65
2023-05-20T01:39:54.287Z,9.05
2023-05-20T01:42:43.971Z,7.70
2023-05-20T01:45:33.260Z,9.75
2023-05-20T01:48:22.164Z,8.20
2023-05-20T01:51:10.926Z,9.57
2023-05-20T01:53:59.675Z,8.00
2023-05-20T01:56:49.763Z,10.77
2023-05-20T01:59:38.492Z,8.68
2023-05-20T02:02:27.398Z,10.38
2023-05-20T02:05:16.328Z,7.78
2023-05-20T02:08:05.166Z,10.40
2023-05-20T02:10:53.942Z,8.68
2023-05-20T02:13:44.149Z,7.82
2023-05-20T02:16:32.982Z,8.13
2023-05-20T02:19:23.836Z,9.23
2023-05-20T02:22:12.955Z,10.55
2023-05-20T02:25:01.782Z,8.10
2023-05-20T02:27:50.577Z,9.38
2023-05-20T02:30:41.054Z,10.20
2023-05-20T02:33:29.873Z,8.50
2023-05-20T02:36:18.816Z,9.15
2023-05-20T02:39:07.629Z,11.10
2023-05-20T02:41:56.397Z,8.68
2023-05-20T02:44:45.180Z,9.63
2023-05-20T02:47:35.301Z,10.05
2023-05-20T02:50:24.031Z,8.98
2023-05-20T02:53:12.769Z,7.88
2023-05-20T02:56:01.665Z,10.85
2023-05-20T02:58:50.537Z,9.30
2023-05-20T03:01:40.507Z,9.05
2023-05-20T03:04:31.793Z,10.27
2023-05-20T03:07:21.689Z,11.52
2023-05-20T03:10:11.658Z,10.05
2023-05-20T03:13:00.449Z,10.48
2023-05-20T03:15:49.295Z,9.70
2023-05-20T03:18:38.083Z,10.52
2023-05-20T03:21:28.232Z,9.30
2023-05-20T03:24:16.978Z,13.35
2023-05-20T03:27:05.953Z,9.35
2023-05-20T03:29:55.009Z,9.18
2023-05-20T03:32:44.381Z,12.52
2023-05-20T03:35:33.463Z,9.07
2023-05-20T03:38:23.752Z,11.90
2023-05-20T03:41:12.698Z,10.60
2023-05-20T03:44:01.427Z,12.63
2023-05-20T03:46:50.318Z,8.98
2023-05-20T03:49:40.450Z,10.23
2023-05-20T03:52:29.270Z,9.85
2023-05-20T03:55:20.632Z,12.55
2023-05-20T03:58:09.456Z,10.60
2023-05-20T04:00:58.256Z,9.60
2023-05-20T04:03:47.139Z,10.73
2023-05-20T04:06:36.024Z,12.45
2023-05-20T04:09:24.872Z,10.27
2023-05-20T04:12:15.014Z,12.60
2023-05-20T04:15:03.827Z,11.40
2023-05-20T04:17:52.629Z,12.80
2023-05-20T04:20:42.321Z,11.55
2023-05-20T04:23:31.073Z,14.50
2023-05-20T04:26:20.728Z,12.02
2023-05-20T04:29:11.953Z,11.25
2023-05-20T04:32:01.224Z,13.65
2023-05-20T04:34:50.762Z,12.48
2023-05-20T04:37:39.720Z,15.10
2023-05-20T04:40:28.853Z,13.55
2023-05-20T04:43:17.678Z,13.35
2023-05-20T04:46:07.950Z,15.65
2023-05-20T04:48:56.802Z,14.57
2023-05-20T04:51:46.872Z,11.88
2023-05-20T04:54:35.654Z,16.23
2023-05-20T04:57:25.696Z,16.17
2023-05-20T05:00:14.879Z,15.50
2023-05-20T05:03:05.076Z,16.08
2023-05-20T05:05:57.490Z,16.75
2023-05-20T05:08:46.723Z,16.88
2023-05-20T05:11:36.010Z,12.70
2023-05-20T05:14:24.790Z,17.25
2023-05-20T05:17:13.615Z,17.15
2023-05-20T05:20:03.762Z,15.88
2023-05-20T05:22:52.532Z,13.00
2023-05-20T05:25:41.290Z,15.98
2023-05-20T05:28:30.136Z,14.50
2023-05-20T05:31:18.919Z,15.77
2023-05-20T05:34:07.779Z,13.02
2023-05-20T05:36:58.057Z,17.48
2023-05-20T05:39:46.866Z,18.67
2023-05-20T05:42:35.805Z,15.30
2023-05-20T05:45:24.631Z,15.85
2023-05-20T05:48:13.450Z,18.08
2023-05-20T05:51:02.229Z,13.60
2023-05-20T05:53:52.421Z,14.68
2023-05-20T05:56:41.188Z,16.25
2023-05-20T05:59:29.999Z,20.20
2023-05-20T06:02:18.788Z,17.15
2023-05-20T06:05:08.071Z,16.10
2023-05-20T06:07:56.835Z,18.05
2023-05-20T06:10:50.380Z,18.15
2023-05-20T06:13:39.127Z,18.73
2023-05-20T06:16:28.016Z,16.60
2023-05-20T06:19:16.835Z,19.10
2023-05-20T06:22:05.871Z,17.90
2023-05-20T06:24:56.520Z,20.25
2023-05-20T06:27:46.628Z,18.90
2023-05-20T06:30:35.351Z,17.52
2023-05-20T06:33:26.056Z,20.63
2023-05-20T06:36:14.913Z,16.88
2023-05-20T06:39:04.284Z,17.10
2023-05-20T06:41:53.624Z,14.80
2023-05-20T06:44:44.021Z,13.13
2023-05-20T06:47:32.849Z,15.95
2023-05-20T06:50:21.725Z,16.27
2023-05-20T06:53:11.104Z,18.27
2023-05-20T06:56:00.006Z,14.98
2023-05-20T06:58:48.854Z,15.43
2023-05-20T07:01:39.176Z,16.05
2023-05-20T07:04:28.040Z,15.77
2023-05-20T07:07:17.519Z,13.85
2023-05-20T07:10:06.972Z,14.52
2023-05-20T07:12:55.685Z,14.73
2023-05-20T07:15:44.417Z,15.73
2023-05-20T07:18:34.640Z,13.68
2023-05-20T07:21:23.388Z,13.82
2023-05-20T07:24:12.110Z,17.33
2023-05-20T07:27:01.092Z,16.20
2023-05-20T07:29:49.980Z,16.67
2023-05-20T07:32:38.834Z,15.15
2023-05-20T07:35:28.982Z,20.45
2023-05-20T07:38:17.974Z,20.45
2023-05-20T07:41:06.800Z,17.05
2023-05-20T07:43:55.562Z,14.55
2023-05-20T07:46:44.330Z,15.85
2023-05-20T07:49:33.110Z,15.80
2023-05-20T07:52:23.280Z,16.25
2023-05-20T07:55:12.057Z,16.08
2023-05-20T07:58:00.968Z,13.73
2023-05-20T08:00:49.728Z,16.10
2023-05-20T08:03:38.596Z,13.65
2023-05-20T08:06:29.665Z,16.85
2023-05-20T08:09:20.323Z,13.93
2023-05-20T08:12:09.433Z,16.88
2023-05-20T08:14:58.177Z,15.98
2023-05-20T08:17:46.930Z,17.20
2023-05-20T08:20:36.068Z,15.77
2023-05-20T08:23:24.822Z,17.13
2023-05-20T08:26:15.167Z,15.98
2023-05-20T08:29:03.938Z,15.35
2023-05-20T08:31:52.999Z,17.35
2023-05-20T08:34:42.836Z,17.27
2023-05-20T08:37:32.087Z,15.20
2023-05-20T08:40:21.420Z,15.50
2023-05-20T08:43:11.592Z,15.45
2023-05-20T08:46:02.362Z,12.30
2023-05-20T08:48:51.470Z,16.65
2023-05-20T08:51:43.007Z,16.15
2023-05-20T08:54:39.073Z,17.52
2023-05-20T08:57:27.992Z,15.38
2023-05-20T09:00:19.424Z,15.43
2023-05-20T09:03:08.162Z,15.70
2023-05-20T09:06:05.181Z,16.58
2023-05-20T09:08:54.105Z,16.80
2023-05-20T09:11:43.050Z,15.93
2023-05-20T09:14:31.992Z,20.55
2023-05-20T09:17:22.893Z,16.52
2023-05-20T09:20:12.401Z,17.48
2023-05-20T09:23:01.766Z,18.48
2023-05-20T09:25:52.220Z,18.80
2023-05-20T09:28:41.104Z,15.20
2023-05-20T09:31:30.123Z,17.30
2023-05-20T09:34:20.660Z,18.17
2023-05-20T09:37:10.264Z,20.77
2023-05-20T09:39:59.688Z,20.55
2023-05-20T09:42:52.659Z,18.95
2023-05-20T09:45:41.431Z,17.40
2023-05-20T09:48:33.952Z,19.15
2023-05-20T09:51:25.494Z,18.02
2023-05-20T09:54:14.474Z,18.60
2023-05-20T09:57:04.050Z,17.63
2023-05-20T09:59:53.315Z,20.65
2023-05-20T10:02:43.877Z,16.65
2023-05-20T10:05:34.257Z,16.45
2023-05-20T10:08:57.003Z,16.27
2023-05-20T10:11:54.778Z,16.80
2023-05-20T10:14:57.005Z,15.25
2023-05-20T10:17:56.955Z,16.88
2023-05-20T10:20:48.922Z,16.17
2023-05-20T10:23:37.497Z,13.80
2023-05-20T10:26:37.218Z,19.40
2023-05-20T10:29:25.801Z,17.77
2023-05-20T10:32:25.934Z,19.77
2023-05-20T10:35:14.526Z,18.98
2023-05-20T10:38:10.800Z,16.67
2023-05-20T10:41:11.374Z,19.92
2023-05-20T10:44:05.065Z,15.40
2023-05-20T10:47:23.824Z,18.02
2023-05-20T10:50:29.048Z,15.85
2023-05-20T10:53:32.390Z,18.40
2023-05-20T10:56:24.098Z,18.15
2023-05-20T10:59:14.474Z,18.30
2023-05-20T11:02:03.476Z,18.13
2023-05-20T11:04:52.301Z,17.98
2023-05-20T11:07:41.244Z,17.55
2023-05-20T11:10:30.120Z,18.80
2023-05-20T11:13:19.899Z,17.35
2023-05-20T11:16:11.135Z,16.95
2023-05-20T11:19:00.389Z,20.75
2023-05-20T11:21:49.335Z,17.58
2023-05-20T11:24:38.133Z,18.52
2023-05-20T11:27:26.884Z,17.17
2023-05-20T11:30:17.074Z,17.85
2023-05-20T11:33:07.367Z,16.23
2023-05-20T11:35:56.388Z,18.77
2023-05-20T11:38:48.015Z,20.80
2023-05-20T11:41:36.847Z,19.52
2023-05-20T11:44:26.447Z,22.27
2023-05-20T11:47:17.610Z,19.50
2023-05-20T11:50:11.435Z,22.35
2023-05-20T11:53:00.874Z,20.30
2023-05-20T11:55:50.484Z,18.83
2023-05-20T11:58:39.254Z,20.65
2023-05-20T12:01:28.975Z,21.75
2023-05-20T12:04:18.494Z,19.75
2023-05-20T12:07:10.412Z,22.00
2023-05-20T12:09:59.189Z,23.65
2023-05-20T12:12:48.440Z,17.08
2023-05-20T12:15:37.246Z,21.33
2023-05-20T12:18:26.160Z,17.25
2023-05-20T12:21:15.006Z,18.92
2023-05-20T12:24:07.069Z,21.33
2023-05-20T12:26:56.017Z,87.88
2023-05-20T12:29:44.758Z,74.35
2023-05-20T12:32:33.659Z,44.92
2023-05-20T12:35:26.355Z,25.65
2023-05-20T12:38:15.003Z,22.20
2023-05-20T12:41:04.849Z,19.00
2023-05-20T12:43:54.292Z,19.92
2023-05-20T12:46:43.536Z,19.88
2023-05-20T12:49:32.122Z,63.45
2023-05-20T12:52:22.782Z,27.05
2023-05-20T12:55:14.684Z,28.27
2023-05-20T12:58:04.833Z,29.55
2023-05-20T13:00:53.674Z,29.25
2023-05-20T13:03:42.239Z,21.23
2023-05-20T13:06:31.400Z,23.10
2023-05-20T13:09:19.861Z,18.35
2023-05-20T13:12:09.150Z,20.40
2023-05-20T13:14:58.971Z,28.45
2023-05-20T13:17:47.540Z,24.08
2023-05-20T13:20:36.231Z,21.02
2023-05-20T13:23:24.845Z,23.40
2023-05-20T13:26:13.580Z,23.35
2023-05-20T13:29:02.591Z,22.08
2023-05-20T13:31:52.451Z,20.85
2023-05-20T13:34:40.951Z,23.17
2023-05-20T13:37:30.047Z,19.80
2023-05-20T13:40:18.825Z,22.05
2023-05-20T13:43:07.582Z,27.90
2023-05-20T13:45:56.502Z,25.33
2023-05-20T13:48:46.814Z,23.15
2023-05-20T13:51:35.822Z,22.55
2023-05-20T13:54:24.613Z,22.40
2023-05-20T13:57:13.425Z,23.45
2023-05-20T14:00:02.223Z,25.38
2023-05-20T14:02:51.126Z,23.27
2023-05-20T14:05:41.637Z,24.20
2023-05-20T14:08:30.351Z,23.58
2023-05-20T14:11:19.342Z,23.15
2023-05-20T14:14:08.073Z,26.65
2023-05-20T14:16:56.847Z,27.83
2023-05-20T14:19:45.626Z,29.63
2023-05-20T14:22:35.808Z,25.05
2023-05-20T14:25:24.622Z,26.38
2023-05-20T14:28:13.398Z,26.42
2023-05-20T14:31:02.207Z,24.02
2023-05-20T14:33:51.021Z,24.00
2023-05-20T14:36:39.947Z,25.95
2023-05-20T14:39:30.153Z,26.35
2023-05-20T14:42:18.977Z,25.52
2023-05-20T14:45:08.216Z,27.13
2023-05-20T14:47:57.230Z,26.50
2023-05-20T14:50:47.695Z,25.33
2023-05-20T14:53:38.337Z,23.52
2023-05-20T14:56:28.617Z,28.20
2023-05-20T14:59:17.466Z,25.02
2023-05-20T15:02:06.476Z,27.23
2023-05-20T15:04:55.321Z,22.10
2023-05-20T15:07:44.856Z,26.92
2023-05-20T15:10:34.592Z,24.98
2023-05-20T15:13:25.096Z,25.08
2023-05-20T15:16:14.027Z,26.00
2023-05-20T15:19:02.937Z,26.17
2023-05-20T15:21:52.411Z,26.33
2023-05-20T15:24:41.235Z,28.08
2023-05-20T15:27:29.997Z,26.33
2023-05-20T15:30:20.243Z,24.75
2023-05-20T15:33:09.065Z,25.02
2023-05-20T15:35:57.960Z,29.65
2023-05-20T15:38:47.187Z,26.60
2023-05-20T15:41:39.872Z,25.48
2023-05-20T15:44:29.804Z,27.92
2023-05-20T15:47:19.999Z,27.50
2023-05-20T15:50:11.180Z,32.17
2023-05-20T15:52:59.984Z,32.10
2023-05-20T15:55:48.714Z,36.45
2023-05-20T15:58:37.435Z,31.58
2023-05-20T16:01:27.082Z,37.47
2023-05-20T16:04:17.456Z,30.27
2023-05-20T16:07:06.581Z,28.17
2023-05-20T16:09:55.368Z,31.58
2023-05-20T16:12:44.127Z,28.33
2023-05-20T16:15:36.331Z,30.50
2023-05-20T16:18:25.340Z,29.83
2023-05-20T16:21:15.592Z,28.55
2023-05-20T16:24:04.390Z,28.77
2023-05-20T16:26:53.244Z,30.02
2023-05-20T16:29:41.975Z,26.58
2023-05-20T16:32:30.700Z,29.08
2023-05-20T16:35:19.472Z,27.95
2023-05-20T16:38:09.599Z,27.92
2023-05-20T16:40:58.299Z,29.30
2023-05-20T16:43:47.065Z,28.40
2023-05-20T16:46:35.829Z,25.90
2023-05-20T16:49:24.620Z,27.02
2023-05-20T16:52:13.408Z,31.13
2023-05-20T16:55:04.712Z,27.40
2023-05-20T16:57:53.621Z,27.73
2023-05-20T17:00:42.367Z,53.58
2023-05-20T17:03:31.306Z,58.22
2023-05-20T17:06:20.261Z,43.28
2023-05-20T17:09:09.038Z,37.20
2023-05-20T17:11:59.216Z,37.20
2023-05-20T17:14:47.992Z,29.48
2023-05-20T17:17:36.855Z,31.92
2023-05-20T17:20:25.696Z,27.90
2023-05-20T17:23:14.858Z,31.80
2023-05-20T17:26:03.651Z,26.55
2023-05-20T17:28:53.804Z,25.50
2023-05-20T17:31:42.528Z,28.60
2023-05-20T17:34:31.329Z,29.13
2023-05-20T17:37:20.093Z,32.45
2023-05-20T17:40:09.416Z,29.38
2023-05-20T17:42:58.150Z,28.00
2023-05-20T17:45:48.447Z,29.08
2023-05-20T17:48:37.255Z,29.67
2023-05-20T17:51:26.269Z,24.48
2023-05-20T17:54:15.155Z,31.55
2023-05-20T17:57:03.885Z,28.83
2023-05-20T17:59:54.509Z,29.90
2023-05-20T18:02:48.195Z,31.40
2023-05-20T18:05:37.147Z,31.67
2023-05-20T18:08:26.308Z,29.20
2023-05-20T18:11:15.114Z,31.75
2023-05-20T18:14:04.115Z,30.15
2023-05-20T18:16:53.133Z,26.67
2023-05-20T18:19:43.266Z,33.90
2023-05-20T18:22:32.088Z,26.08
2023-05-20T18:25:21.047Z,23.70
2023-05-20T18:28:11.167Z,31.83
2023-05-20T18:30:59.970Z,28.38
2023-05-20T18:33:48.730Z,29.23
2023-05-20T18:36:38.900Z,27.13
2023-05-20T18:39:27.619Z,28.60
2023-05-20T18:42:17.147Z,23.95
2023-05-20T18:45:06.488Z,30.15
2023-05-20T18:47:57.684Z,25.67
2023-05-20T18:50:46.555Z,30.45
2023-05-20T18:53:37.081Z,24.40
2023-05-20T18:56:26.504Z,25.10
2023-05-20T18:59:15.342Z,31.05
2023-05-20T19:02:04.145Z,32.70
2023-05-20T19:04:53.105Z,27.85
2023-05-20T19:07:41.887Z,27.67
2023-05-20T19:10:32.040Z,29.45
2023-05-20T19:13:21.692Z,27.60
2023-05-20T19:16:10.600Z,26.60
2023-05-20T19:18:59.544Z,28.23
2023-05-20T19:21:48.357Z,28.40
2023-05-20T19:24:37.172Z,25.20
2023-05-20T19:27:27.268Z,26.77
2023-05-20T19:30:16.066Z,24.60
2023-05-20T19:33:05.671Z,24.83
2023-05-20T19:35:54.444Z,28.58
2023-05-20T19:38:43.166Z,27.33
2023-05-20T19:41:32.004Z,28.48
2023-05-20T19:44:22.853Z,27.73
2023-05-20T19:47:11.600Z,31.02
2023-05-20T19:50:00.339Z,30.08
2023-05-20T19:52:49.196Z,29.17
2023-05-20T19:55:38.768Z,31.90
2023-05-20T19:58:27.834Z,30.05
2023-05-20T20:01:18.666Z,32.97
2023-05-20T20:04:07.607Z,30.73
2023-05-20T20:06:56.530Z,37.28
2023-05-20T20:09:48.260Z,31.58
2023-05-20T20:12:37.045Z,35.08
2023-05-20T20:15:27.099Z,29.42
2023-05-20T20:18:17.359Z,31.38
2023-05-20T20:21:06.461Z,33.95
2023-05-20T20:23:55.239Z,35.88
2023-05-20T20:26:44.000Z,33.55
2023-05-20T20:29:32.854Z,33.22
2023-05-20T20:32:23.549Z,35.92
2023-05-20T20:35:14.456Z,33.65
2023-05-20T20:38:08.429Z,32.67
2023-05-20T20:40:59.353Z,36.63
2023-05-20T20:43:48.161Z,35.47
2023-05-20T20:46:37.599Z,34.15
2023-05-20T20:49:28.400Z,33.42
2023-05-20T20:52:18.780Z,38.35
2023-05-20T20:55:07.938Z,34.53
2023-05-20T20:57:56.750Z,31.88
2023-05-20T21:00:45.793Z,32.95
2023-05-20T21:03:35.204Z,39.33
2023-05-20T21:06:24.055Z,35.33
2023-05-20T21:09:14.297Z,32.10
2023-05-20T21:12:06.542Z,35.65
2023-05-20T21:14:55.533Z,34.13
2023-05-20T21:17:44.370Z,34.67
2023-05-20T21:20:33.134Z,37.30
2023-05-20T21:23:22.141Z,31.60
2023-05-20T21:26:12.278Z,36.60
2023-05-20T21:29:01.086Z,38.30
2023-05-20T21:31:50.331Z,36.00
2023-05-20T21:34:39.112Z,36.70
2023-05-20T21:37:27.834Z,41.67
2023-05-20T21:40:16.586Z,33.55
2023-05-20T21:43:06.786Z,32.67
2023-05-20T21:45:55.540Z,33.63
2023-05-20T21:48:44.285Z,33.13
2023-05-20T21:51:33.032Z,38.78
2023-05-20T21:54:21.776Z,36.30
2023-05-20T21:57:10.567Z,34.40
2023-05-20T22:00:00.686Z,40.78
2023-05-20T22:02:50.806Z,34.00
2023-05-20T22:05:39.588Z,36.00
2023-05-20T22:08:30.815Z,36.53
2023-05-20T22:11:19.864Z,32.20
2023-05-20T22:14:08.737Z,36.08
2023-05-20T22:17:00.147Z,37.05
2023-05-20T22:19:49.902Z,34.45
2023-05-20T22:22:39.159Z,33.67
2023-05-20T22:25:27.890Z,37.92
2023-05-20T22:28:17.351Z,35.05
2023-05-20T22:31:06.314Z,37.85
2023-05-20T22:33:56.562Z,35.95
2023-05-20T22:36:45.426Z,37.50
2023-05-20T22:39:34.314Z,40.58
2023-05-20T22:42:23.134Z,35.65
2023-05-20T22:45:12.217Z,36.55
2023-05-20T22:48:01.907Z,39.72
2023-05-20T22:50:54.159Z,32.78
2023-05-20T22:53:42.980Z,36.45
2023-05-20T22:56:32.568Z,38.50
2023-05-20T22:59:21.343Z,38.33
2023-05-20T23:02:10.128Z,36.15
2023-05-20T23:04:58.886Z,35.60
2023-05-20T23:07:51.167Z,38.85
2023-05-20T23:10:40.074Z,36.92
2023-05-20T23:13:28.868Z,42.67
2023-05-20T23:16:17.776Z,36.63
2023-05-20T23:19:06.754Z,36.85
2023-05-20T23:21:55.710Z,38.75
2023-05-20T23:24:45.822Z,38.17
2023-05-20T23:27:34.672Z,38.40
2023-05-20T23:30:23.849Z,36.78
2023-05-20T23:33:13.163Z,34.38
2023-05-20T23:36:02.907Z,37.10
2023-05-20T23:38:51.662Z,36.03
2023-05-20T23:41:41.755Z,38.35
2023-05-20T23:44:30.544Z,35.15
2023-05-20T23:47:19.715Z,36.05
2023-05-20T23:50:08.868Z,35.10
2023-05-20T23:52:57.674Z,36.13
2023-05-20T23:55:49.491Z,33.30
2023-05-20T23:58:39.793Z,36.40
